Albany, OR

4:52 PM PDT on September 01, 2014 (GMT -0700)
Corvallis Municipal | Change Station
CLOSE
Current Station
Airport
Location: Corvallis,
Elevation: 246 ft
Nearby Weather Stations

Elev 246 ft 44.50 °N, 123.29 °W | Updated 17 minutes ago

Clear
Clear
86 °F
Feels Like 84 °F
N
8
Wind Variable Wind from ENE

Today
High -- | Low -- °F
--% Chance of Precip.
Yesterday
High -- | Low -- °F
Precip. -- in
6:34 AM 7:48 PM
Waxing Crescent, 45% visible
Pressure 29.99 in
Visibility 10.0 miles
Clouds Clear
Heat Index 84 °F
Dew Point 54 °F
Humidity 33%
Rainfall 0.00 in
Snow Depth Not available.
UV 4 out of 12
Pollen 3.50 out of 12
Ozone Good
PM2.5 Good
Flu Activity Not available.
METAR KCVO 012335Z AUTO 06007KT 10SM CLR 30/12 A2999 RMK AO1

More Conditions Fewer Conditions

Pressure 29.99 in
Visibility 10.0 miles
Clouds Clear
Heat Index 84 °F
Dew Point 54 °F
Humidity 33%
Rainfall 0.00 in
Snow Depth Not available.
UV 4 out of 12
Pollen 3.50 out of 12
Ozone Good
PM2.5 Good
Flu Activity Not available.
METAR KCVO 012335Z AUTO 06007KT 10SM CLR 30/12 A2999 RMK AO1

More Conditions Fewer Conditions

10-Day Weather Forecast

Almanac

Astronomy

Sep. 01, 2014 Rise Set
Actual Time 6:34 AM PDT 7:48 PM PDT
Civil Twilight 6:04 AM PDT 8:18 PM PDT
Nautical Twilight 5:28 AM PDT 8:54 PM PDT
Astronomical Twilight 4:50 AM PDT 9:32 PM PDT
Moon 1:42 PM PDT 11:37 PM PDT
Length of Visible Light 14h 13m
Length of Day
13h 13m
Tomorrow will be 2m 58s shorter.
Waxing Crescent, 45% of the Moon is Illuminated
Today
Waxing Crescent
Sep 2
First Quarter
Sep 8
Full
Sep 15
Last Quarter
Sep 24
New

Today's Extremes

State Highs State Lows

Community

WunderPhotos

Upload Photos

1,749,440 photos uploaded!

Nearby

Air Quality

  Air Quality AQ Index Pollutant
Yesterday Good
PM2.5
Yesterday Good
OZONE
Current Good
PM2.5
Current Good
OZONE
Monday Moderate
PM2.5
Tuesday Good
PM2.5

Snow Depth

Station Depth Elevation
Hogg Pass 0 in 4760 ft
Peavine Ridge 4 in 3500 ft
Mckenzie 0 in 4800 ft
Holland Meadows 0 in 4900 ft
Clackamas Lake 0 in 3400 ft

Earthquake Activity

City Distance Mag. Time & Date
No recent earthquake activity has been reported nearby.
Minimum magnitude displayed is 2.5.

Coastal Water Temperatures

Place Temperature
No Stations Reporting

Nearby Weather Stations